createdAt,value
2019-02-27T00:02:13.662Z,101064.38
2019-02-27T00:04:43.538Z,101055.34
2019-02-27T00:07:13.491Z,101062.77
2019-02-27T00:09:43.341Z,101058.69
2019-02-27T00:12:13.003Z,101046.30
2019-02-27T00:14:42.767Z,101054.13
2019-02-27T00:17:15.079Z,101053.13
2019-02-27T00:19:44.166Z,101048.58
2019-02-27T00:22:14.955Z,101053.20
2019-02-27T00:24:45.451Z,101045.73
2019-02-27T00:27:16.537Z,101044.85
2019-02-27T00:29:46.434Z,101048.08
2019-02-27T00:32:18.674Z,101049.05
2019-02-27T00:34:47.946Z,101059.44
2019-02-27T00:37:19.018Z,101057.63
2019-02-27T00:39:49.254Z,101056.67
2019-02-27T00:42:20.685Z,101056.07
2019-02-27T00:44:50.632Z,101055.79
2019-02-27T00:47:20.774Z,101041.52
2019-02-27T00:49:50.565Z,101058.17
2019-02-27T00:52:20.369Z,101043.86
2019-02-27T00:54:50.418Z,101035.72
2019-02-27T00:57:21.579Z,101037.14
2019-02-27T00:59:51.248Z,101040.25
2019-02-27T01:02:21.053Z,101039.30
2019-02-27T01:04:50.907Z,101048.83
2019-02-27T01:07:21.449Z,101045.04
2019-02-27T01:09:51.783Z,101043.86
2019-02-27T01:12:22.877Z,101045.08
2019-02-27T01:14:53.736Z,101047.31
2019-02-27T01:17:24.418Z,101046.91
2019-02-27T01:19:54.330Z,101050.72
2019-02-27T01:22:24.107Z,101052.70
2019-02-27T01:24:54.114Z,101048.62
2019-02-27T01:27:23.863Z,101050.78
2019-02-27T01:29:53.715Z,101040.27
2019-02-27T01:32:23.576Z,101038.60
2019-02-27T01:34:53.430Z,101042.95
2019-02-27T01:37:23.365Z,101046.93
2019-02-27T01:39:53.200Z,101050.37
2019-02-27T01:42:23.168Z,101060.55
2019-02-27T01:44:52.937Z,101055.82
2019-02-27T01:47:22.978Z,101047.71
2019-02-27T01:49:52.776Z,101051.77
2019-02-27T01:52:22.459Z,101056.42
2019-02-27T01:54:52.304Z,101062.42
2019-02-27T01:57:22.209Z,101039.21
2019-02-27T01:59:51.911Z,101046.20
2019-02-27T02:02:22.638Z,101058.48
2019-02-27T02:04:53.788Z,101046.41
2019-02-27T02:07:23.822Z,101043.18
2019-02-27T02:09:55.196Z,101040.61
2019-02-27T02:12:28.658Z,101043.86
2019-02-27T02:15:08.515Z,101035.09
2019-02-27T02:18:18.947Z,101040.31
2019-02-27T02:21:32.052Z,101044.13
2019-02-27T02:24:39.373Z,101048.95
2019-02-27T02:27:49.166Z,101050.14
2019-02-27T02:31:09.697Z,101053.81
2019-02-27T02:34:05.067Z,101052.91
2019-02-27T02:37:13.769Z,101065.28
2019-02-27T02:40:15.675Z,101067.58
2019-02-27T02:43:50.468Z,101063.72
2019-02-27T02:46:26.120Z,101066.13
2019-02-27T02:49:09.231Z,101073.48
2019-02-27T02:52:17.262Z,101064.71
2019-02-27T02:55:48.827Z,101067.01
2019-02-27T02:58:54.686Z,101071.05
2019-02-27T03:01:49.388Z,101077.78
2019-02-27T03:04:49.287Z,101066.34
2019-02-27T03:07:47.264Z,101079.19
2019-02-27T03:10:29.117Z,101076.44
2019-02-27T03:13:50.132Z,101070.98
2019-02-27T03:17:06.239Z,101080.50
2019-02-27T03:19:56.820Z,101076.09
2019-02-27T03:22:49.696Z,101083.05
2019-02-27T03:26:03.748Z,101073.99
2019-02-27T03:29:15.688Z,101077.47
2019-02-27T03:32:11.982Z,101080.04
2019-02-27T03:35:27.531Z,101071.39
2019-02-27T03:38:41.327Z,101082.82
2019-02-27T03:41:38.898Z,101076.27
2019-02-27T03:45:07.374Z,101065.33
2019-02-27T03:48:08.649Z,101064.66
2019-02-27T03:51:15.711Z,101080.94
2019-02-27T03:53:59.993Z,101074.11
2019-02-27T03:57:08.401Z,101076.63
2019-02-27T04:00:18.034Z,101083.30
2019-02-27T04:03:18.738Z,101081.23
2019-02-27T04:06:24.003Z,101094.79
2019-02-27T04:08:58.334Z,101082.56
2019-02-27T04:11:28.621Z,101100.98
2019-02-27T04:14:04.743Z,101111.89
2019-02-27T04:16:32.059Z,101095.42
2019-02-27T04:19:04.594Z,101111.08
2019-02-27T04:21:33.866Z,101118.28
2019-02-27T04:24:03.754Z,101127.36
2019-02-27T04:26:33.581Z,101120.28
2019-02-27T04:29:04.428Z,101125.44
2019-02-27T04:31:35.182Z,101112.84
2019-02-27T04:34:05.066Z,101112.08
2019-02-27T04:36:34.991Z,101129.71
2019-02-27T04:39:05.578Z,101116.95
2019-02-27T04:41:35.337Z,101105.55
2019-02-27T04:44:06.059Z,101109.19
2019-02-27T04:46:36.042Z,101127.28
2019-02-27T04:49:05.784Z,101114.33
2019-02-27T04:51:35.710Z,101123.05
2019-02-27T04:54:07.270Z,101123.31
2019-02-27T04:56:37.287Z,101135.16
2019-02-27T04:59:06.988Z,101124.48
2019-02-27T05:01:37.421Z,101128.20
2019-02-27T05:04:07.229Z,101132.50
2019-02-27T05:06:36.951Z,101127.80
2019-02-27T05:09:08.019Z,101155.70
2019-02-27T05:11:37.964Z,101125.82
2019-02-27T05:14:07.746Z,101163.88
2019-02-27T05:16:37.958Z,101138.05
2019-02-27T05:19:07.891Z,101176.91
2019-02-27T05:21:37.566Z,101185.12
2019-02-27T05:24:08.561Z,101197.44
2019-02-27T05:26:38.446Z,101152.95
2019-02-27T05:29:08.436Z,101176.80
2019-02-27T05:31:38.227Z,101197.20
2019-02-27T05:34:12.675Z,101181.91
2019-02-27T05:36:39.756Z,101183.19
2019-02-27T05:39:09.493Z,101204.84
2019-02-27T05:41:39.368Z,101198.83
2019-02-27T05:44:09.196Z,101205.22
2019-02-27T05:46:39.275Z,101209.55
2019-02-27T05:49:09.228Z,101215.09
2019-02-27T05:51:39.091Z,101201.81
2019-02-27T05:54:08.949Z,101217.16
2019-02-27T05:56:38.683Z,101203.88
2019-02-27T05:59:08.433Z,101214.36
2019-02-27T06:01:38.768Z,101219.70
2019-02-27T06:04:08.523Z,101236.57
2019-02-27T06:06:39.575Z,101234.48
2019-02-27T06:09:10.388Z,101230.91
2019-02-27T06:11:40.829Z,101239.78
2019-02-27T06:14:10.775Z,101245.39
2019-02-27T06:16:40.949Z,101240.58
2019-02-27T06:19:10.993Z,101246.59
2019-02-27T06:21:40.963Z,101245.36
2019-02-27T06:24:12.568Z,101244.70
2019-02-27T06:26:42.377Z,101248.27
2019-02-27T06:29:12.265Z,101255.86
2019-02-27T06:31:44.554Z,101251.98
2019-02-27T06:34:14.361Z,101268.63
2019-02-27T06:36:44.340Z,101267.88
2019-02-27T06:39:14.193Z,101286.20
2019-02-27T06:41:43.917Z,101299.46
2019-02-27T06:44:13.952Z,101286.39
2019-02-27T06:46:44.588Z,101287.77
2019-02-27T06:49:17.305Z,101275.03
2019-02-27T06:51:47.253Z,101280.09
2019-02-27T06:54:18.342Z,101284.70
2019-02-27T06:56:48.645Z,101293.34
2019-02-27T06:59:18.445Z,101291.94
2019-02-27T07:01:48.537Z,101294.83
2019-02-27T07:04:18.294Z,101289.24
2019-02-27T07:06:48.105Z,101291.06
2019-02-27T07:09:17.961Z,101257.95
2019-02-27T07:11:48.953Z,101278.20
2019-02-27T07:14:18.894Z,101278.02
2019-02-27T07:16:48.590Z,101254.66
2019-02-27T07:19:18.440Z,101308.00
2019-02-27T07:21:48.334Z,101322.55
2019-02-27T07:24:18.353Z,101327.58
2019-02-27T07:26:50.119Z,101296.43
2019-02-27T07:29:21.948Z,101292.07
2019-02-27T07:31:52.086Z,101296.84
2019-02-27T07:34:22.504Z,101311.45
2019-02-27T07:36:52.214Z,101324.31
2019-02-27T07:39:22.100Z,101327.89
2019-02-27T07:41:51.875Z,101321.39
2019-02-27T07:44:24.237Z,101331.83
2019-02-27T07:46:57.136Z,101307.05
2019-02-27T07:49:25.581Z,101312.39
2019-02-27T07:51:57.819Z,101303.92
2019-02-27T07:54:29.054Z,101285.23
2019-02-27T07:56:58.626Z,101315.59
2019-02-27T07:59:28.535Z,101306.89
2019-02-27T08:02:02.300Z,101303.17
2019-02-27T08:04:30.954Z,101323.78
2019-02-27T08:07:00.645Z,101304.06
2019-02-27T08:09:30.778Z,101318.66
2019-02-27T08:12:00.601Z,101263.37
2019-02-27T08:14:30.561Z,101314.62
2019-02-27T08:17:00.364Z,101259.34
2019-02-27T08:19:30.127Z,101323.91
2019-02-27T08:21:59.929Z,101283.41
2019-02-27T08:24:29.688Z,101350.34
2019-02-27T08:26:59.753Z,101352.60
2019-02-27T08:29:30.816Z,101365.87
2019-02-27T08:32:01.284Z,101358.47
2019-02-27T08:34:31.487Z,101339.32
2019-02-27T08:37:01.368Z,101344.77
2019-02-27T08:39:31.725Z,101367.42
2019-02-27T08:42:03.588Z,101334.55
2019-02-27T08:44:33.329Z,101358.23
2019-02-27T08:47:04.238Z,101361.01
2019-02-27T08:49:34.235Z,101396.77
2019-02-27T08:52:04.270Z,101358.41
2019-02-27T08:54:34.008Z,101373.45
2019-02-27T08:57:03.768Z,101418.45
2019-02-27T08:59:33.561Z,101361.91
2019-02-27T09:02:03.314Z,101391.18
2019-02-27T09:04:33.118Z,101370.34
2019-02-27T09:07:03.541Z,101392.72
2019-02-27T09:09:33.588Z,101389.02
2019-02-27T09:12:03.394Z,101408.18
2019-02-27T09:14:33.421Z,101424.48
2019-02-27T09:17:03.319Z,101409.94
2019-02-27T09:19:33.129Z,101402.63
2019-02-27T09:22:03.109Z,101398.12
2019-02-27T09:24:33.103Z,101385.39
2019-02-27T09:27:03.085Z,101398.58
2019-02-27T09:29:32.962Z,101424.63
2019-02-27T09:32:02.736Z,101409.94
2019-02-27T09:34:33.038Z,101426.42
2019-02-27T09:37:04.119Z,101398.16
2019-02-27T09:39:35.147Z,101428.58
2019-02-27T09:42:04.993Z,101426.39
2019-02-27T09:44:36.638Z,101423.32
2019-02-27T09:47:06.329Z,101420.22
2019-02-27T09:49:40.314Z,101436.06
2019-02-27T09:52:07.688Z,101446.83
2019-02-27T09:54:37.623Z,101442.97
2019-02-27T09:57:07.499Z,101415.48
2019-02-27T09:59:37.372Z,101406.56
2019-02-27T10:02:09.019Z,101378.12
2019-02-27T10:04:38.827Z,101407.54
2019-02-27T10:07:08.670Z,101374.77
2019-02-27T10:09:40.355Z,101404.02
2019-02-27T10:12:11.125Z,101363.47
2019-02-27T10:14:40.971Z,101390.67
2019-02-27T10:17:10.767Z,101372.13
2019-02-27T10:19:40.596Z,101385.66
2019-02-27T10:22:10.391Z,101361.73
2019-02-27T10:24:40.300Z,101385.22
2019-02-27T10:27:10.145Z,101367.25
2019-02-27T10:29:40.035Z,101377.38
2019-02-27T10:32:09.953Z,101379.08
2019-02-27T10:34:42.324Z,101373.78
2019-02-27T10:37:13.296Z,101373.45
2019-02-27T10:39:43.800Z,101393.25
2019-02-27T10:42:13.752Z,101370.03
2019-02-27T10:44:43.692Z,101360.38
2019-02-27T10:47:13.551Z,101317.50
2019-02-27T10:49:43.373Z,101340.13
2019-02-27T10:52:13.233Z,101366.64
2019-02-27T10:54:44.377Z,101336.03
2019-02-27T10:57:14.144Z,101361.73
2019-02-27T10:59:43.941Z,101342.17
2019-02-27T11:02:13.883Z,101351.36
2019-02-27T11:04:43.800Z,101364.47
2019-02-27T11:07:15.918Z,101373.95
2019-02-27T11:09:45.499Z,101351.55
2019-02-27T11:12:15.378Z,101395.30
2019-02-27T11:14:45.243Z,101362.22
2019-02-27T11:17:15.012Z,101350.22
2019-02-27T11:19:44.804Z,101350.53
2019-02-27T11:22:14.575Z,101363.08
2019-02-27T11:24:44.277Z,101375.31
2019-02-27T11:27:14.026Z,101370.81
2019-02-27T11:29:44.074Z,101351.35
2019-02-27T11:32:15.553Z,101372.47
2019-02-27T11:34:45.548Z,101381.48
2019-02-27T11:37:17.090Z,101369.09
2019-02-27T11:39:46.875Z,101373.38
2019-02-27T11:42:16.618Z,101368.11
2019-02-27T11:44:49.404Z,101370.48
2019-02-27T11:47:19.048Z,101379.91
2019-02-27T11:49:48.728Z,101355.33
2019-02-27T11:52:18.531Z,101360.19
2019-02-27T11:54:48.493Z,101385.23
2019-02-27T11:57:18.487Z,101389.43
2019-02-27T11:59:48.291Z,101387.98
2019-02-27T12:02:18.571Z,101369.68
2019-02-27T12:04:48.218Z,101386.03
2019-02-27T12:07:18.046Z,101393.25
2019-02-27T12:09:49.228Z,101384.36
2019-02-27T12:12:22.477Z,101388.80
2019-02-27T12:14:50.447Z,101404.55
2019-02-27T12:17:23.278Z,101370.23
2019-02-27T12:19:53.171Z,101377.78
2019-02-27T12:22:22.972Z,101371.91
2019-02-27T12:24:53.476Z,101347.55
2019-02-27T12:27:45.187Z,101368.14
2019-02-27T12:29:54.859Z,101373.21
2019-02-27T12:32:24.875Z,101358.13
2019-02-27T12:34:54.946Z,101381.17
2019-02-27T12:37:28.300Z,101379.42
2019-02-27T12:39:56.684Z,101383.55
2019-02-27T12:42:26.599Z,101379.08
2019-02-27T12:44:56.407Z,101389.83
2019-02-27T12:47:26.500Z,101383.67
2019-02-27T12:49:56.239Z,101380.59
2019-02-27T12:52:26.317Z,101398.25
2019-02-27T12:54:59.157Z,101402.10
2019-02-27T12:57:28.829Z,101401.13
2019-02-27T12:59:59.712Z,101402.61
2019-02-27T13:02:35.688Z,101402.72
2019-02-27T13:05:01.065Z,101407.16
2019-02-27T13:07:32.239Z,101403.69
2019-02-27T13:10:02.253Z,101390.40
2019-02-27T13:12:32.044Z,101395.98
2019-02-27T13:15:06.615Z,101408.66
2019-02-27T13:17:33.412Z,101415.23
2019-02-27T13:20:03.272Z,101412.77
2019-02-27T13:22:33.201Z,101418.94
2019-02-27T13:25:02.855Z,101452.23
2019-02-27T13:27:32.686Z,101485.99
2019-02-27T13:30:08.602Z,101449.36
2019-02-27T13:32:35.195Z,101461.69
2019-02-27T13:35:05.189Z,101441.82
2019-02-27T13:37:35.106Z,101438.77
2019-02-27T13:40:07.704Z,101450.86
2019-02-27T13:42:37.641Z,101428.12
2019-02-27T13:45:12.631Z,101421.22
2019-02-27T13:47:41.020Z,101395.45
2019-02-27T13:50:11.135Z,101417.33
2019-02-27T13:52:40.869Z,101422.32
2019-02-27T13:55:11.908Z,101440.87
2019-02-27T13:57:41.919Z,101441.38
2019-02-27T14:00:20.959Z,101427.09
2019-02-27T14:02:49.653Z,101409.45
2019-02-27T14:05:19.735Z,101432.91
2019-02-27T14:07:49.444Z,101426.69
2019-02-27T14:10:20.733Z,101414.88
2019-02-27T14:12:50.705Z,101420.00
2019-02-27T14:15:20.537Z,101405.10
2019-02-27T14:17:50.457Z,101389.95
2019-02-27T14:20:21.041Z,101431.27
2019-02-27T14:22:50.936Z,101405.45
2019-02-27T14:25:22.224Z,101393.14
2019-02-27T14:27:52.349Z,101428.70
2019-02-27T14:30:24.049Z,101418.67
2019-02-27T14:32:53.947Z,101409.11
2019-02-27T14:35:24.023Z,101413.86
2019-02-27T14:37:53.772Z,101423.45
2019-02-27T14:40:23.922Z,101393.99
2019-02-27T14:42:55.071Z,101425.22
2019-02-27T14:45:25.085Z,101440.47
2019-02-27T14:47:55.105Z,101417.58
2019-02-27T14:50:25.367Z,101408.70
2019-02-27T14:52:55.256Z,101420.09
2019-02-27T14:55:25.285Z,101420.97
2019-02-27T14:57:56.252Z,101409.23
2019-02-27T15:00:27.884Z,101416.33
2019-02-27T15:02:57.779Z,101420.83
2019-02-27T15:05:27.633Z,101430.50
2019-02-27T15:07:57.510Z,101427.72
2019-02-27T15:10:27.834Z,101445.02
2019-02-27T15:12:57.685Z,101427.01
2019-02-27T15:15:29.098Z,101436.00
2019-02-27T15:17:59.063Z,101404.23
2019-02-27T15:20:28.896Z,101416.06
2019-02-27T15:22:58.763Z,101432.20
2019-02-27T15:25:28.592Z,101428.60
2019-02-27T15:27:59.908Z,101448.06
2019-02-27T15:30:30.015Z,101439.76
2019-02-27T15:33:04.347Z,101459.25
2019-02-27T15:35:32.484Z,101446.19
2019-02-27T15:38:02.389Z,101423.68
2019-02-27T15:40:32.250Z,101437.03
2019-02-27T15:43:10.651Z,101433.92
2019-02-27T15:45:34.212Z,101463.77
2019-02-27T15:48:06.977Z,101449.09
2019-02-27T15:50:37.318Z,101473.47
2019-02-27T15:53:07.134Z,101470.33
2019-02-27T15:55:37.899Z,101460.81
2019-02-27T15:58:07.763Z,101460.94
2019-02-27T16:00:37.808Z,101463.70
2019-02-27T16:03:10.953Z,101467.63
2019-02-27T16:05:40.134Z,101466.19
2019-02-27T16:08:10.315Z,101473.68
2019-02-27T16:10:43.718Z,101466.69
2019-02-27T16:13:11.905Z,101463.20
2019-02-27T16:15:41.700Z,101465.74
2019-02-27T16:18:11.594Z,101463.31
2019-02-27T16:20:41.358Z,101468.42
2019-02-27T16:23:11.143Z,101480.04
2019-02-27T16:25:40.902Z,101480.27
2019-02-27T16:28:12.038Z,101478.02
2019-02-27T16:30:42.132Z,101477.02
2019-02-27T16:33:12.122Z,101476.91
2019-02-27T16:35:43.069Z,101485.78
2019-02-27T16:38:13.256Z,101484.38
2019-02-27T16:40:43.129Z,101486.98
2019-02-27T16:43:13.474Z,101492.48
2019-02-27T16:45:44.170Z,101494.02
2019-02-27T16:48:14.088Z,101476.53
2019-02-27T16:50:45.566Z,101478.97
2019-02-27T16:53:18.728Z,101489.64
2019-02-27T16:55:48.178Z,101498.61
2019-02-27T16:58:18.253Z,101497.00
2019-02-27T17:00:54.361Z,101493.22
2019-02-27T17:03:21.306Z,101485.74
2019-02-27T17:05:50.994Z,101491.78
2019-02-27T17:08:20.945Z,101490.09
2019-02-27T17:10:51.901Z,101497.72
2019-02-27T17:13:22.260Z,101495.07
2019-02-27T17:15:52.351Z,101497.27
2019-02-27T17:18:27.833Z,101498.08
2019-02-27T17:20:53.708Z,101490.42
2019-02-27T17:23:23.559Z,101495.56
2019-02-27T17:25:53.171Z,101488.08
2019-02-27T17:28:25.596Z,101496.36
2019-02-27T17:30:55.365Z,101488.58
2019-02-27T17:33:25.184Z,101492.52
2019-02-27T17:35:58.568Z,101491.00
2019-02-27T17:38:26.666Z,101493.83
2019-02-27T17:40:56.380Z,101496.91
2019-02-27T17:43:29.429Z,101494.61
2019-02-27T17:45:57.952Z,101494.27
2019-02-27T17:48:27.964Z,101495.13
2019-02-27T17:50:57.718Z,101485.21
2019-02-27T17:53:27.628Z,101492.91
2019-02-27T17:55:58.768Z,101499.31
2019-02-27T17:58:31.868Z,101496.33
2019-02-27T18:01:02.573Z,101488.61
2019-02-27T18:03:32.485Z,101495.48
2019-02-27T18:06:02.310Z,101498.48
2019-02-27T18:08:32.477Z,101501.95
2019-02-27T18:11:02.245Z,101505.59
2019-02-27T18:13:35.332Z,101507.91
2019-02-27T18:16:03.767Z,101501.39
2019-02-27T18:18:33.629Z,101503.88
2019-02-27T18:21:03.652Z,101518.77
2019-02-27T18:23:33.636Z,101508.03
2019-02-27T18:26:03.280Z,101511.48
2019-02-27T18:28:33.700Z,101503.09
2019-02-27T18:31:03.814Z,101500.59
2019-02-27T18:33:33.529Z,101503.55
2019-02-27T18:36:04.863Z,101503.52
2019-02-27T18:38:35.015Z,101501.83
2019-02-27T18:41:05.113Z,101499.69
2019-02-27T18:43:35.008Z,101508.68
2019-02-27T18:46:04.841Z,101504.56
2019-02-27T18:48:34.917Z,101502.26
2019-02-27T18:51:04.889Z,101496.01
2019-02-27T18:53:34.817Z,101506.35
2019-02-27T18:56:04.573Z,101509.95
2019-02-27T18:58:34.356Z,101509.61
2019-02-27T19:01:09.555Z,101516.78
2019-02-27T19:03:38.038Z,101509.95
2019-02-27T19:06:07.879Z,101502.77
2019-02-27T19:08:37.573Z,101513.02
2019-02-27T19:11:08.623Z,101510.47
2019-02-27T19:13:38.543Z,101505.22
2019-02-27T19:16:10.700Z,101504.78
2019-02-27T19:18:41.137Z,101509.27
2019-02-27T19:21:11.858Z,101509.70
2019-02-27T19:23:41.572Z,101508.89
2019-02-27T19:26:13.240Z,101517.39
2019-02-27T19:28:42.844Z,101506.67
2019-02-27T19:31:16.400Z,101513.20
2019-02-27T19:33:44.164Z,101508.91
2019-02-27T19:36:19.271Z,101511.25
2019-02-27T19:38:47.555Z,101513.02
2019-02-27T19:41:18.654Z,101516.53
2019-02-27T19:43:48.442Z,101515.70
2019-02-27T19:46:18.111Z,101509.62
2019-02-27T19:48:48.273Z,101506.77
2019-02-27T19:51:20.190Z,101507.22
2019-02-27T19:53:50.113Z,101509.41
2019-02-27T19:56:20.226Z,101511.03
2019-02-27T19:58:51.161Z,101515.17
2019-02-27T20:01:21.990Z,101505.24
2019-02-27T20:03:53.160Z,101469.73
2019-02-27T20:06:24.615Z,101495.84
2019-02-27T20:08:54.925Z,101491.37
2019-02-27T20:11:26.401Z,101487.31
2019-02-27T20:13:56.217Z,101498.89
2019-02-27T20:16:26.488Z,101485.91
2019-02-27T20:18:56.227Z,101493.05
2019-02-27T20:21:26.159Z,101486.81
2019-02-27T20:24:01.091Z,101480.42
2019-02-27T20:26:27.691Z,101477.08
2019-02-27T20:28:57.626Z,101482.73
2019-02-27T20:31:27.460Z,101478.27
2019-02-27T20:33:57.216Z,101483.05
2019-02-27T20:36:29.900Z,101475.44
2019-02-27T20:39:00.441Z,101474.91
2019-02-27T20:41:30.186Z,101469.41
2019-02-27T20:44:00.384Z,101461.45
2019-02-27T20:46:31.630Z,101464.22
2019-02-27T20:49:01.494Z,101454.14
2019-02-27T20:51:31.596Z,101457.05
2019-02-27T20:54:02.707Z,101455.42
2019-02-27T20:56:35.943Z,101455.08
2019-02-27T20:59:04.522Z,101460.82
2019-02-27T21:01:34.396Z,101461.59
2019-02-27T21:04:04.534Z,101453.89
2019-02-27T21:06:35.720Z,101455.07
2019-02-27T21:09:11.104Z,101452.58
2019-02-27T21:11:39.124Z,101455.83
2019-02-27T21:14:09.272Z,101446.77
2019-02-27T21:16:43.159Z,101450.44
2019-02-27T21:19:11.693Z,101455.69
2019-02-27T21:21:41.460Z,101448.06
2019-02-27T21:24:11.312Z,101438.31
2019-02-27T21:26:41.074Z,101439.50
2019-02-27T21:29:11.049Z,101443.87
2019-02-27T21:31:40.842Z,101444.70
2019-02-27T21:34:10.645Z,101431.08
2019-02-27T21:36:40.498Z,101436.77
2019-02-27T21:39:10.734Z,101424.19
2019-02-27T21:41:42.338Z,101432.39
2019-02-27T21:44:12.402Z,101430.61
2019-02-27T21:46:46.215Z,101422.36
2019-02-27T21:49:13.825Z,101429.22
2019-02-27T21:51:47.703Z,101428.91
2019-02-27T21:54:16.539Z,101417.75
2019-02-27T21:56:46.246Z,101418.98
2019-02-27T21:59:16.135Z,101422.80
2019-02-27T22:01:45.984Z,101428.73
2019-02-27T22:04:15.810Z,101427.52
2019-02-27T22:06:45.778Z,101416.08
2019-02-27T22:09:15.817Z,101411.45
2019-02-27T22:11:45.537Z,101419.20
2019-02-27T22:14:16.607Z,101413.98
2019-02-27T22:16:47.017Z,101413.64
2019-02-27T22:19:18.919Z,101404.82
2019-02-27T22:21:48.365Z,101408.25
2019-02-27T22:24:21.024Z,101408.25
2019-02-27T22:26:50.773Z,101408.71
2019-02-27T22:29:20.589Z,101405.20
2019-02-27T22:31:50.392Z,101404.86
2019-02-27T22:34:21.481Z,101406.37
2019-02-27T22:36:51.346Z,101403.63
2019-02-27T22:39:21.267Z,101407.20
2019-02-27T22:41:51.139Z,101415.48
2019-02-27T22:44:20.788Z,101423.37
2019-02-27T22:46:50.401Z,101414.09
2019-02-27T22:49:20.328Z,101400.42
2019-02-27T22:51:50.356Z,101404.34
2019-02-27T22:54:20.209Z,101404.77
2019-02-27T22:56:51.385Z,101403.80
2019-02-27T22:59:21.451Z,101394.73
2019-02-27T23:01:53.661Z,101401.67
2019-02-27T23:04:23.524Z,101397.05
2019-02-27T23:06:53.462Z,101402.73
2019-02-27T23:09:25.589Z,101398.26
2019-02-27T23:11:55.020Z,101394.58
2019-02-27T23:14:24.953Z,101395.42
2019-02-27T23:16:54.993Z,101391.08
2019-02-27T23:19:24.844Z,101390.02
2019-02-27T23:21:57.527Z,101384.48
2019-02-27T23:24:26.379Z,101382.59
2019-02-27T23:26:56.247Z,101384.93
2019-02-27T23:29:26.272Z,101385.96
2019-02-27T23:31:56.015Z,101386.86
2019-02-27T23:34:25.792Z,101383.45
2019-02-27T23:36:55.817Z,101391.14
2019-02-27T23:39:26.275Z,101389.19
2019-02-27T23:41:56.563Z,101390.52
2019-02-27T23:44:27.361Z,101388.48
2019-02-27T23:46:57.494Z,101387.30
2019-02-27T23:49:27.875Z,101380.34
2019-02-27T23:51:57.800Z,101375.08
2019-02-27T23:54:27.562Z,101375.06
2019-02-27T23:56:57.516Z,101371.50
2019-02-27T23:59:27.328Z,101366.95
